sensor_id;sensor_type;location;lat;lon;timestamp;pressure;altitude;pressure_sealevel;temperature;humidity
14232;BME280;7200;52.194;9.900;2024-03-02T00:00:09;99192.00;;;8.89;100.00
14232;BME280;7200;52.194;9.900;2024-03-02T00:02:43;99195.88;;;8.99;100.00
14232;BME280;7200;52.194;9.900;2024-03-02T00:05:13;99194.88;;;9.02;100.00
14232;BME280;7200;52.194;9.900;2024-03-02T00:07:43;99197.50;;;9.02;100.00
14232;BME280;7200;52.194;9.900;2024-03-02T00:10:10;99193.41;;;8.96;100.00
14232;BME280;7200;52.194;9.900;2024-03-02T00:12:37;99189.84;;;8.97;100.00
14232;BME280;7200;52.194;9.900;2024-03-02T00:15:24;99186.22;;;9.00;100.00
14232;BME280;7200;52.194;9.900;2024-03-02T00:17:57;99194.41;;;8.93;100.00
14232;BME280;7200;52.194;9.900;2024-03-02T00:20:23;99185.69;;;8.93;100.00
14232;BME280;7200;52.194;9.900;2024-03-02T00:22:49;99185.19;;;8.85;100.00
14232;BME280;7200;52.194;9.900;2024-03-02T00:25:16;99185.19;;;8.85;100.00
14232;BME280;7200;52.194;9.900;2024-03-02T00:27:41;99183.25;;;8.88;100.00
14232;BME280;7200;52.194;9.900;2024-03-02T00:33:10;99181.56;;;8.87;100.00
14232;BME280;7200;52.194;9.900;2024-03-02T00:35:36;99188.53;;;8.88;100.00
14232;BME280;7200;52.194;9.900;2024-03-02T00:38:07;99189.16;;;8.93;100.00
14232;BME280;7200;52.194;9.900;2024-03-02T00:40:32;99191.47;;;9.00;100.00
14232;BME280;7200;52.194;9.900;2024-03-02T00:42:58;99189.94;;;8.95;100.00
14232;BME280;7200;52.194;9.900;2024-03-02T00:45:23;99194.03;;;8.84;100.00
14232;BME280;7200;52.194;9.900;2024-03-02T00:47:50;99185.44;;;8.80;100.00
14232;BME280;7200;52.194;9.900;2024-03-02T00:50:15;99192.25;;;8.84;100.00
14232;BME280;7200;52.194;9.900;2024-03-02T00:52:41;99189.47;;;8.87;100.00
14232;BME280;7200;52.194;9.900;2024-03-02T00:55:07;99187.50;;;8.91;100.00
14232;BME280;7200;52.194;9.900;2024-03-02T00:57:33;99191.16;;;8.88;100.00
14232;BME280;7200;52.194;9.900;2024-03-02T00:59:59;99188.59;;;8.87;100.00
14232;BME280;7200;52.194;9.900;2024-03-02T01:02:25;99198.50;;;8.82;100.00
14232;BME280;7200;52.194;9.900;2024-03-02T01:04:50;99192.94;;;8.88;100.00
14232;BME280;7200;52.194;9.900;2024-03-02T01:07:15;99201.03;;;8.83;100.00
14232;BME280;7200;52.194;9.900;2024-03-02T01:09:40;99194.09;;;8.82;100.00
14232;BME280;7200;52.194;9.900;2024-03-02T01:12:06;99188.13;;;8.79;100.00
14232;BME280;7200;52.194;9.900;2024-03-02T01:14:32;99192.31;;;8.83;100.00
14232;BME280;7200;52.194;9.900;2024-03-02T01:16:57;99192.31;;;8.83;100.00
14232;BME280;7200;52.194;9.900;2024-03-02T01:19:23;99199.19;;;8.85;100.00
14232;BME280;7200;52.194;9.900;2024-03-02T01:21:48;99199.19;;;8.85;100.00
14232;BME280;7200;52.194;9.900;2024-03-02T01:24:15;99198.28;;;8.86;100.00
14232;BME280;7200;52.194;9.900;2024-03-02T01:26:41;99200.25;;;8.81;100.00
14232;BME280;7200;52.194;9.900;2024-03-02T01:29:07;99196.56;;;8.85;100.00
14232;BME280;7200;52.194;9.900;2024-03-02T01:31:32;99197.63;;;8.81;100.00
14232;BME280;7200;52.194;9.900;2024-03-02T01:33:57;99198.34;;;8.85;100.00
14232;BME280;7200;52.194;9.900;2024-03-02T01:36:23;99197.56;;;8.83;100.00
14232;BME280;7200;52.194;9.900;2024-03-02T01:38:48;99197.72;;;8.80;100.00
14232;BME280;7200;52.194;9.900;2024-03-02T01:41:14;99198.66;;;8.79;100.00
14232;BME280;7200;52.194;9.900;2024-03-02T01:43:39;99199.56;;;8.77;100.00
14232;BME280;7200;52.194;9.900;2024-03-02T01:46:05;99198.72;;;8.77;100.00
14232;BME280;7200;52.194;9.900;2024-03-02T01:48:30;99202.13;;;8.79;100.00
14232;BME280;7200;52.194;9.900;2024-03-02T01:50:55;99200.25;;;8.81;100.00
14232;BME280;7200;52.194;9.900;2024-03-02T01:53:21;99197.63;;;8.81;100.00
14232;BME280;7200;52.194;9.900;2024-03-02T01:55:46;99193.53;;;8.75;100.00
14232;BME280;7200;52.194;9.900;2024-03-02T01:58:11;99191.06;;;8.72;100.00
14232;BME280;7200;52.194;9.900;2024-03-02T02:00:37;99178.28;;;8.65;100.00
14232;BME280;7200;52.194;9.900;2024-03-02T02:03:02;99183.47;;;8.66;100.00
14232;BME280;7200;52.194;9.900;2024-03-02T02:05:28;99176.44;;;8.67;100.00
14232;BME280;7200;52.194;9.900;2024-03-02T02:07:53;99180.81;;;8.66;100.00
14232;BME280;7200;52.194;9.900;2024-03-02T02:10:18;99176.97;;;8.56;100.00
14232;BME280;7200;52.194;9.900;2024-03-02T02:12:44;99169.13;;;8.54;100.00
14232;BME280;7200;52.194;9.900;2024-03-02T02:17:47;99168.50;;;8.49;100.00
14232;BME280;7200;52.194;9.900;2024-03-02T02:20:12;99163.41;;;8.46;100.00
14232;BME280;7200;52.194;9.900;2024-03-02T02:22:37;99164.50;;;8.42;100.00
14232;BME280;7200;52.194;9.900;2024-03-02T02:25:03;99154.69;;;8.46;100.00
14232;BME280;7200;52.194;9.900;2024-03-02T02:27:28;99164.31;;;8.45;100.00
14232;BME280;7200;52.194;9.900;2024-03-02T02:29:54;99154.81;;;8.43;100.00
14232;BME280;7200;52.194;9.900;2024-03-02T02:32:21;99158.22;;;8.45;100.00
14232;BME280;7200;52.194;9.900;2024-03-02T02:34:46;99151.34;;;8.42;100.00
14232;BME280;7200;52.194;9.900;2024-03-02T02:37:11;99153.09;;;8.42;100.00
14232;BME280;7200;52.194;9.900;2024-03-02T02:39:37;99151.59;;;8.36;100.00
14232;BME280;7200;52.194;9.900;2024-03-02T02:42:02;99156.00;;;8.35;100.00
14232;BME280;7200;52.194;9.900;2024-03-02T02:44:28;99151.75;;;8.33;100.00
14232;BME280;7200;52.194;9.900;2024-03-02T02:46:53;99160.63;;;8.30;100.00
14232;BME280;7200;52.194;9.900;2024-03-02T02:49:18;99150.19;;;8.29;100.00
14232;BME280;7200;52.194;9.900;2024-03-02T02:51:44;99150.03;;;8.32;100.00
14232;BME280;7200;52.194;9.900;2024-03-02T02:54:09;99150.75;;;8.35;100.00
14232;BME280;7200;52.194;9.900;2024-03-02T02:56:34;99143.56;;;8.39;100.00
14232;BME280;7200;52.194;9.900;2024-03-02T02:58:59;99149.59;;;8.41;100.00
14232;BME280;7200;52.194;9.900;2024-03-02T03:01:25;99146.09;;;8.42;100.00
14232;BME280;7200;52.194;9.900;2024-03-02T03:03:50;99139.97;;;8.42;100.00
14232;BME280;7200;52.194;9.900;2024-03-02T03:06:16;99129.38;;;8.43;100.00
14232;BME280;7200;52.194;9.900;2024-03-02T03:08:41;99136.34;;;8.44;100.00
14232;BME280;7200;52.194;9.900;2024-03-02T03:11:06;99136.06;;;8.31;100.00
14232;BME280;7200;52.194;9.900;2024-03-02T03:13:32;99129.72;;;8.35;100.00
14232;BME280;7200;52.194;9.900;2024-03-02T03:15:57;99133.13;;;8.37;100.00
14232;BME280;7200;52.194;9.900;2024-03-02T03:18:23;99132.41;;;8.34;100.00
14232;BME280;7200;52.194;9.900;2024-03-02T03:20:48;99132.00;;;8.24;100.00
14232;BME280;7200;52.194;9.900;2024-03-02T03:23:13;99131.31;;;8.21;100.00
14232;BME280;7200;52.194;9.900;2024-03-02T03:25:45;99130.22;;;8.25;100.00
14232;BME280;7200;52.194;9.900;2024-03-02T03:28:10;99137.56;;;8.18;100.00
14232;BME280;7200;52.194;9.900;2024-03-02T03:30:37;99129.03;;;8.13;100.00
14232;BME280;7200;52.194;9.900;2024-03-02T03:33:03;99133.16;;;8.18;100.00
14232;BME280;7200;52.194;9.900;2024-03-02T03:35:28;99127.75;;;8.22;100.00
14232;BME280;7200;52.194;9.900;2024-03-02T03:37:54;99125.50;;;8.14;100.00
14232;BME280;7200;52.194;9.900;2024-03-02T03:40:19;99129.81;;;8.15;100.00
14232;BME280;7200;52.194;9.900;2024-03-02T03:42:45;99128.25;;;8.11;100.00
14232;BME280;7200;52.194;9.900;2024-03-02T03:45:10;99135.91;;;8.15;100.00
14232;BME280;7200;52.194;9.900;2024-03-02T03:47:35;99130.97;;;8.09;100.00
14232;BME280;7200;52.194;9.900;2024-03-02T03:50:01;99133.66;;;8.08;100.00
14232;BME280;7200;52.194;9.900;2024-03-02T03:52:29;99132.94;;;8.04;100.00
14232;BME280;7200;52.194;9.900;2024-03-02T03:54:54;99118.25;;;8.00;100.00
14232;BME280;7200;52.194;9.900;2024-03-02T03:57:20;99125.41;;;7.96;100.00
14232;BME280;7200;52.194;9.900;2024-03-02T03:59:45;99129.69;;;7.99;100.00
14232;BME280;7200;52.194;9.900;2024-03-02T04:02:11;99130.13;;;7.90;100.00
14232;BME280;7200;52.194;9.900;2024-03-02T04:04:38;99125.53;;;7.95;100.00
14232;BME280;7200;52.194;9.900;2024-03-02T04:07:03;99122.19;;;7.91;100.00
14232;BME280;7200;52.194;9.900;2024-03-02T04:09:29;99118.84;;;7.88;100.00
14232;BME280;7200;52.194;9.900;2024-03-02T04:11:54;99121.72;;;7.82;100.00
14232;BME280;7200;52.194;9.900;2024-03-02T04:14:20;99120.19;;;7.77;100.00
14232;BME280;7200;52.194;9.900;2024-03-02T04:16:45;99128.13;;;7.76;100.00
14232;BME280;7200;52.194;9.900;2024-03-02T04:19:10;99123.03;;;7.73;100.00
14232;BME280;7200;52.194;9.900;2024-03-02T04:21:35;99121.19;;;7.75;100.00
14232;BME280;7200;52.194;9.900;2024-03-02T04:24:01;99118.44;;;7.78;100.00
14232;BME280;7200;52.194;9.900;2024-03-02T04:26:26;99118.56;;;7.75;100.00
14232;BME280;7200;52.194;9.900;2024-03-02T04:28:52;99123.81;;;7.75;100.00
14232;BME280;7200;52.194;9.900;2024-03-02T04:31:18;99130.06;;;7.72;100.00
14232;BME280;7200;52.194;9.900;2024-03-02T04:33:44;99123.94;;;7.72;100.00
14232;BME280;7200;52.194;9.900;2024-03-02T04:36:09;99120.53;;;7.70;100.00
14232;BME280;7200;52.194;9.900;2024-03-02T04:38:35;99123.09;;;7.71;100.00
14232;BME280;7200;52.194;9.900;2024-03-02T04:41:00;99121.19;;;7.75;100.00
14232;BME280;7200;52.194;9.900;2024-03-02T04:43:26;99113.59;;;7.69;100.00
14232;BME280;7200;52.194;9.900;2024-03-02T04:45:51;99111.16;;;7.64;100.00
14232;BME280;7200;52.194;9.900;2024-03-02T04:48:16;99111.31;;;7.61;100.00
14232;BME280;7200;52.194;9.900;2024-03-02T04:50:41;99113.22;;;7.57;100.00
14232;BME280;7200;52.194;9.900;2024-03-02T04:53:07;99115.13;;;7.54;100.00
14232;BME280;7200;52.194;9.900;2024-03-02T04:55:32;99114.34;;;7.52;100.00
14232;BME280;7200;52.194;9.900;2024-03-02T04:58:20;99110.97;;;7.50;100.00
14232;BME280;7200;52.194;9.900;2024-03-02T05:00:46;99106.75;;;7.46;100.00
14232;BME280;7200;52.194;9.900;2024-03-02T05:03:14;99106.13;;;7.40;100.00
14232;BME280;7200;52.194;9.900;2024-03-02T05:05:39;99105.84;;;7.47;100.00
14232;BME280;7200;52.194;9.900;2024-03-02T05:08:05;99105.06;;;7.45;100.00
14232;BME280;7200;52.194;9.900;2024-03-02T05:10:30;99107.03;;;7.39;100.00
14232;BME280;7200;52.194;9.900;2024-03-02T05:12:55;99102.84;;;7.35;100.00
14232;BME280;7200;52.194;9.900;2024-03-02T05:15:22;99101.13;;;7.34;100.00
14232;BME280;7200;52.194;9.900;2024-03-02T05:17:47;99103.91;;;7.31;100.00
14232;BME280;7200;52.194;9.900;2024-03-02T05:20:13;99107.50;;;7.29;100.00
14232;BME280;7200;52.194;9.900;2024-03-02T05:22:38;99098.06;;;7.25;100.00
14232;BME280;7200;52.194;9.900;2024-03-02T05:25:04;99091.03;;;7.25;100.00
14232;BME280;7200;52.194;9.900;2024-03-02T05:27:30;99092.81;;;7.25;100.00
14232;BME280;7200;52.194;9.900;2024-03-02T05:29:57;99107.84;;;7.21;100.00
14232;BME280;7200;52.194;9.900;2024-03-02T05:32:23;99101.97;;;7.16;100.00
14232;BME280;7200;52.194;9.900;2024-03-02T05:34:48;99107.66;;;7.05;100.00
14232;BME280;7200;52.194;9.900;2024-03-02T05:37:15;99111.84;;;7.09;100.00
14232;BME280;7200;52.194;9.900;2024-03-02T05:39:41;99103.91;;;7.11;100.00
14232;BME280;7200;52.194;9.900;2024-03-02T05:42:06;99100.63;;;7.06;100.00
14232;BME280;7200;52.194;9.900;2024-03-02T05:44:31;99102.34;;;7.07;100.00
14232;BME280;7200;52.194;9.900;2024-03-02T05:46:57;99106.81;;;7.05;100.00
14232;BME280;7200;52.194;9.900;2024-03-02T05:49:22;99104.38;;;7.00;100.00
14232;BME280;7200;52.194;9.900;2024-03-02T05:51:47;99102.69;;;6.99;100.00
14232;BME280;7200;52.194;9.900;2024-03-02T05:54:13;99102.81;;;6.96;100.00
14232;BME280;7200;52.194;9.900;2024-03-02T05:56:38;99109.91;;;6.94;100.00
14232;BME280;7200;52.194;9.900;2024-03-02T05:59:04;99109.91;;;6.94;100.00
14232;BME280;7200;52.194;9.900;2024-03-02T06:01:39;99113.69;;;6.87;100.00
14232;BME280;7200;52.194;9.900;2024-03-02T06:04:04;99110.00;;;6.91;100.00
14232;BME280;7200;52.194;9.900;2024-03-02T06:06:29;99112.47;;;6.95;100.00
14232;BME280;7200;52.194;9.900;2024-03-02T06:08:55;99109.34;;;7.06;100.00
14232;BME280;7200;52.194;9.900;2024-03-02T06:11:20;99114.59;;;7.06;100.00
14232;BME280;7200;52.194;9.900;2024-03-02T06:13:45;99115.47;;;7.07;100.00
14232;BME280;7200;52.194;9.900;2024-03-02T06:16:11;99132.63;;;7.14;100.00
14232;BME280;7200;52.194;9.900;2024-03-02T06:18:36;99135.25;;;7.14;100.00
14232;BME280;7200;52.194;9.900;2024-03-02T06:21:02;99132.38;;;7.20;100.00
14232;BME280;7200;52.194;9.900;2024-03-02T06:23:28;99133.81;;;7.27;100.00
14232;BME280;7200;52.194;9.900;2024-03-02T06:25:53;99139.13;;;7.26;100.00
14232;BME280;7200;52.194;9.900;2024-03-02T06:28:18;99144.31;;;7.27;100.00
14232;BME280;7200;52.194;9.900;2024-03-02T06:30:44;99146.00;;;7.28;100.00
14232;BME280;7200;52.194;9.900;2024-03-02T06:33:10;99150.06;;;7.35;100.00
14232;BME280;7200;52.194;9.900;2024-03-02T06:35:35;99148.16;;;7.39;100.00
14232;BME280;7200;52.194;9.900;2024-03-02T06:38:01;99148.66;;;7.47;100.00
14232;BME280;7200;52.194;9.900;2024-03-02T06:40:26;99151.34;;;7.46;100.00
14232;BME280;7200;52.194;9.900;2024-03-02T06:42:51;99160.53;;;7.56;100.00
14232;BME280;7200;52.194;9.900;2024-03-02T06:45:17;99164.78;;;7.58;100.00
14232;BME280;7200;52.194;9.900;2024-03-02T06:47:42;99165.31;;;7.67;100.00
14232;BME280;7200;52.194;9.900;2024-03-02T06:50:08;99166.16;;;7.67;100.00
14232;BME280;7200;52.194;9.900;2024-03-02T06:52:34;99167.50;;;7.76;100.00
14232;BME280;7200;52.194;9.900;2024-03-02T06:54:59;99166.59;;;7.77;100.00
14232;BME280;7200;52.194;9.900;2024-03-02T06:57:25;99161.06;;;7.83;100.00
14232;BME280;7200;52.194;9.900;2024-03-02T06:59:50;99161.63;;;7.90;100.00
14232;BME280;7200;52.194;9.900;2024-03-02T07:02:16;99168.31;;;7.97;100.00
14232;BME280;7200;52.194;9.900;2024-03-02T07:04:42;99173.47;;;7.98;100.00
14232;BME280;7200;52.194;9.900;2024-03-02T07:07:07;99170.66;;;8.03;100.00
14232;BME280;7200;52.194;9.900;2024-03-02T07:09:32;99167.66;;;8.11;100.00
14232;BME280;7200;52.194;9.900;2024-03-02T07:11:58;99170.94;;;8.16;100.00
14232;BME280;7200;52.194;9.900;2024-03-02T07:14:23;99172.56;;;8.18;100.00
14232;BME280;7200;52.194;9.900;2024-03-02T07:17:08;99174.28;;;8.19;100.00
14232;BME280;7200;52.194;9.900;2024-03-02T07:19:34;99174.81;;;8.26;100.00
14232;BME280;7200;52.194;9.900;2024-03-02T07:22:00;99176.47;;;8.29;100.00
14232;BME280;7200;52.194;9.900;2024-03-02T07:24:25;99177.03;;;8.35;100.00
14232;BME280;7200;52.194;9.900;2024-03-02T07:26:50;99181.13;;;8.41;100.00
14232;BME280;7200;52.194;9.900;2024-03-02T07:29:16;99183.66;;;8.44;100.00
14232;BME280;7200;52.194;9.900;2024-03-02T07:31:41;99184.44;;;8.46;100.00
14232;BME280;7200;52.194;9.900;2024-03-02T07:34:07;99187.47;;;8.56;100.00
14232;BME280;7200;52.194;9.900;2024-03-02T07:36:32;99192.72;;;8.56;100.00
14232;BME280;7200;52.194;9.900;2024-03-02T07:38:57;99194.50;;;8.55;100.00
14232;BME280;7200;52.194;9.900;2024-03-02T07:41:23;99203.66;;;8.66;100.00
14232;BME280;7200;52.194;9.900;2024-03-02T07:43:48;99205.13;;;8.71;100.00
14232;BME280;7200;52.194;9.900;2024-03-02T07:46:14;99206.41;;;8.82;100.00
14232;BME280;7200;52.194;9.900;2024-03-02T07:48:39;99216.44;;;8.91;100.00
14232;BME280;7200;52.194;9.900;2024-03-02T07:51:04;99217.84;;;8.98;100.00
14232;BME280;7200;52.194;9.900;2024-03-02T07:53:30;99214.84;;;9.06;100.00
14232;BME280;7200;52.194;9.900;2024-03-02T07:55:56;99225.34;;;9.06;100.00
14232;BME280;7200;52.194;9.900;2024-03-02T07:58:26;99219.97;;;9.09;100.00
14232;BME280;7200;52.194;9.900;2024-03-02T08:00:52;99222.34;;;9.13;100.00
14232;BME280;7200;52.194;9.900;2024-03-02T08:03:17;99226.22;;;9.06;100.00
14232;BME280;7200;52.194;9.900;2024-03-02T08:05:44;99219.63;;;9.15;100.00
14232;BME280;7200;52.194;9.900;2024-03-02T08:08:09;99232.72;;;9.16;100.00
14232;BME280;7200;52.194;9.900;2024-03-02T08:10:35;99226.00;;;9.11;100.00
14232;BME280;7200;52.194;9.900;2024-03-02T08:13:00;99229.72;;;9.07;100.00
14232;BME280;7200;52.194;9.900;2024-03-02T08:15:26;99231.25;;;9.11;100.00
14232;BME280;7200;52.194;9.900;2024-03-02T08:17:51;99224.84;;;9.16;100.00
14232;BME280;7200;52.194;9.900;2024-03-02T08:20:16;99229.88;;;9.21;100.00
14232;BME280;7200;52.194;9.900;2024-03-02T08:22:42;99237.78;;;9.21;100.00
14232;BME280;7200;52.194;9.900;2024-03-02T08:25:08;99233.88;;;9.28;100.00
14232;BME280;7200;52.194;9.900;2024-03-02T08:27:33;99240.47;;;9.37;100.00
14232;BME280;7200;52.194;9.900;2024-03-02T08:29:59;99236.94;;;9.38;100.00
14232;BME280;7200;52.194;9.900;2024-03-02T08:32:24;99244.66;;;9.41;100.00
14232;BME280;7200;52.194;9.900;2024-03-02T08:34:49;99239.06;;;9.47;100.00
14232;BME280;7200;52.194;9.900;2024-03-02T08:37:15;99242.19;;;9.55;100.00
14232;BME280;7200;52.194;9.900;2024-03-02T08:39:40;99243.88;;;9.57;100.00
14232;BME280;7200;52.194;9.900;2024-03-02T08:42:06;99238.75;;;9.71;100.00
14232;BME280;7200;52.194;9.900;2024-03-02T08:44:31;99239.03;;;9.82;100.00
14232;BME280;7200;52.194;9.900;2024-03-02T08:46:56;99241.88;;;9.95;100.00
14232;BME280;7200;52.194;9.900;2024-03-02T08:49:22;99239.75;;;10.02;100.00
14232;BME280;7200;52.194;9.900;2024-03-02T08:51:47;99241.31;;;10.06;100.00
14232;BME280;7200;52.194;9.900;2024-03-02T08:54:20;99244.47;;;10.12;100.00
14232;BME280;7200;52.194;9.900;2024-03-02T08:56:45;99248.41;;;10.21;100.00
14232;BME280;7200;52.194;9.900;2024-03-02T08:59:11;99251.91;;;10.38;100.00
14232;BME280;7200;52.194;9.900;2024-03-02T09:01:36;99247.28;;;10.59;100.00
14232;BME280;7200;52.194;9.900;2024-03-02T09:04:06;99240.88;;;10.63;100.00
14232;BME280;7200;52.194;9.900;2024-03-02T09:06:32;99250.50;;;10.80;100.00
14232;BME280;7200;52.194;9.900;2024-03-02T09:08:57;99252.19;;;10.81;100.00
14232;BME280;7200;52.194;9.900;2024-03-02T09:11:23;99258.81;;;10.88;100.00
14232;BME280;7200;52.194;9.900;2024-03-02T09:13:48;99255.06;;;10.92;100.00
14232;BME280;7200;52.194;9.900;2024-03-02T09:16:14;99258.66;;;10.91;100.00
14232;BME280;7200;52.194;9.900;2024-03-02T09:18:39;99253.97;;;10.80;100.00
14232;BME280;7200;52.194;9.900;2024-03-02T09:21:04;99259.91;;;10.68;100.00
14232;BME280;7200;52.194;9.900;2024-03-02T09:23:30;99263.59;;;10.81;100.00
14232;BME280;7200;52.194;9.900;2024-03-02T09:25:55;99263.25;;;10.71;100.00
14232;BME280;7200;52.194;9.900;2024-03-02T09:28:20;99261.72;;;10.83;100.00
14232;BME280;7200;52.194;9.900;2024-03-02T09:30:46;99263.66;;;10.96;100.00
14232;BME280;7200;52.194;9.900;2024-03-02T09:33:11;99269.38;;;11.04;100.00
14232;BME280;7200;52.194;9.900;2024-03-02T09:35:36;99257.03;;;10.88;100.00
14232;BME280;7200;52.194;9.900;2024-03-02T09:38:01;99267.72;;;11.01;100.00
14232;BME280;7200;52.194;9.900;2024-03-02T09:40:28;99269.03;;;11.24;100.00
14232;BME280;7200;52.194;9.900;2024-03-02T09:42:57;99269.25;;;11.21;100.00
14232;BME280;7200;52.194;9.900;2024-03-02T09:45:24;99270.31;;;11.33;100.00
14232;BME280;7200;52.194;9.900;2024-03-02T09:47:49;99278.28;;;11.17;100.00
14232;BME280;7200;52.194;9.900;2024-03-02T09:50:15;99272.88;;;11.35;100.00
14232;BME280;7200;52.194;9.900;2024-03-02T09:52:42;99280.94;;;11.62;100.00
14232;BME280;7200;52.194;9.900;2024-03-02T09:55:08;99286.19;;;11.78;100.00
14232;BME280;7200;52.194;9.900;2024-03-02T09:57:34;99277.81;;;11.85;100.00
14232;BME280;7200;52.194;9.900;2024-03-02T09:59:59;99286.81;;;11.97;100.00
14232;BME280;7200;52.194;9.900;2024-03-02T10:02:25;99286.06;;;11.95;100.00
14232;BME280;7200;52.194;9.900;2024-03-02T10:04:50;99281.81;;;12.07;100.00
14232;BME280;7200;52.194;9.900;2024-03-02T10:07:17;99278.41;;;12.05;100.00
14232;BME280;7200;52.194;9.900;2024-03-02T10:09:44;99278.78;;;12.27;100.00
14232;BME280;7200;52.194;9.900;2024-03-02T10:12:11;99283.06;;;12.30;100.00
14232;BME280;7200;52.194;9.900;2024-03-02T10:14:37;99289.94;;;12.18;100.00
14232;BME280;7200;52.194;9.900;2024-03-02T10:17:10;99286.53;;;12.16;100.00
14232;BME280;7200;52.194;9.900;2024-03-02T10:19:36;99282.75;;;12.06;100.00
14232;BME280;7200;52.194;9.900;2024-03-02T10:22:04;99289.75;;;11.93;100.00
14232;BME280;7200;52.194;9.900;2024-03-02T10:24:42;99289.50;;;11.81;100.00
14232;BME280;7200;52.194;9.900;2024-03-02T10:27:16;99290.69;;;12.06;100.00
14232;BME280;7200;52.194;9.900;2024-03-02T10:29:42;99295.63;;;12.26;100.00
14232;BME280;7200;52.194;9.900;2024-03-02T10:32:11;99293.25;;;12.36;100.00
14232;BME280;7200;52.194;9.900;2024-03-02T10:34:37;99293.22;;;12.51;100.00
14232;BME280;7200;52.194;9.900;2024-03-02T10:37:05;99297.69;;;12.36;100.00
14232;BME280;7200;52.194;9.900;2024-03-02T10:39:31;99291.34;;;12.38;100.00
14232;BME280;7200;52.194;9.900;2024-03-02T10:41:57;99289.63;;;12.37;100.00
14232;BME280;7200;52.194;9.900;2024-03-02T10:44:23;99290.78;;;12.48;100.00
14232;BME280;7200;52.194;9.900;2024-03-02T10:46:51;99292.47;;;12.49;100.00
14232;BME280;7200;52.194;9.900;2024-03-02T10:49:17;99288.88;;;12.50;100.00
14232;BME280;7200;52.194;9.900;2024-03-02T10:51:44;99288.50;;;12.56;100.00
14232;BME280;7200;52.194;9.900;2024-03-02T10:54:09;99291.63;;;12.62;100.00
14232;BME280;7200;52.194;9.900;2024-03-02T10:59:17;99296.78;;;12.78;100.00
14232;BME280;7200;52.194;9.900;2024-03-02T11:01:46;99296.50;;;12.83;100.00
14232;BME280;7200;52.194;9.900;2024-03-02T11:04:12;99291.56;;;12.77;100.00
14232;BME280;7200;52.194;9.900;2024-03-02T11:06:39;99294.72;;;12.69;100.00
14232;BME280;7200;52.194;9.900;2024-03-02T11:09:09;99290.88;;;12.60;100.00
14232;BME280;7200;52.194;9.900;2024-03-02T11:11:39;99288.75;;;12.65;100.00
14232;BME280;7200;52.194;9.900;2024-03-02T11:14:07;99297.28;;;12.56;100.00
14232;BME280;7200;52.194;9.900;2024-03-02T11:16:37;99290.78;;;12.33;100.00
14232;BME280;7200;52.194;9.900;2024-03-02T11:19:09;99285.94;;;12.54;100.00
14232;BME280;7200;52.194;9.900;2024-03-02T11:21:36;99284.34;;;12.66;100.00
14232;BME280;7200;52.194;9.900;2024-03-02T11:26:46;99282.38;;;12.82;100.00
14232;BME280;7200;52.194;9.900;2024-03-02T11:32:15;99276.38;;;13.08;100.00
14232;BME280;7200;52.194;9.900;2024-03-02T11:34:42;99269.47;;;13.05;100.00
14232;BME280;7200;52.194;9.900;2024-03-02T11:37:20;99275.91;;;13.28;100.00
14232;BME280;7200;52.194;9.900;2024-03-02T11:39:47;99265.78;;;13.35;100.00
14232;BME280;7200;52.194;9.900;2024-03-02T11:42:15;99249.22;;;13.31;100.00
14232;BME280;7200;52.194;9.900;2024-03-02T11:44:47;99252.59;;;13.20;100.00
14232;BME280;7200;52.194;9.900;2024-03-02T11:47:15;99253.44;;;13.21;100.00
14232;BME280;7200;52.194;9.900;2024-03-02T11:49:46;99257.25;;;13.30;100.00
14232;BME280;7200;52.194;9.900;2024-03-02T11:52:13;99260.72;;;13.44;100.00
14232;BME280;7200;52.194;9.900;2024-03-02T11:54:41;99244.63;;;13.48;100.00
14232;BME280;7200;52.194;9.900;2024-03-02T11:57:16;99247.59;;;13.43;100.00
14232;BME280;7200;52.194;9.900;2024-03-02T11:59:42;99254.16;;;13.50;100.00
14232;BME280;7200;52.194;9.900;2024-03-02T12:02:14;99259.16;;;13.55;100.00
14232;BME280;7200;52.194;9.900;2024-03-02T12:04:40;99267.00;;;13.56;100.00
14232;BME280;7200;52.194;9.900;2024-03-02T12:07:06;99256.09;;;13.74;100.00
14232;BME280;7200;52.194;9.900;2024-03-02T12:09:33;99259.03;;;13.69;100.00
14232;BME280;7200;52.194;9.900;2024-03-02T12:12:08;99257.97;;;13.59;100.00
14232;BME280;7200;52.194;9.900;2024-03-02T12:14:35;99248.88;;;13.63;100.00
14232;BME280;7200;52.194;9.900;2024-03-02T12:17:01;99246.00;;;13.53;100.00
14232;BME280;7200;52.194;9.900;2024-03-02T12:19:27;99240.50;;;13.29;100.00
14232;BME280;7200;52.194;9.900;2024-03-02T12:21:55;99250.03;;;13.19;100.00
14232;BME280;7200;52.194;9.900;2024-03-02T12:24:21;99230.88;;;13.28;100.00
14232;BME280;7200;52.194;9.900;2024-03-02T12:26:48;99224.72;;;13.28;100.00
14232;BME280;7200;52.194;9.900;2024-03-02T12:29:14;99229.03;;;13.43;100.00
14232;BME280;7200;52.194;9.900;2024-03-02T12:31:40;99224.25;;;13.48;100.00
14232;BME280;7200;52.194;9.900;2024-03-02T12:34:05;99226.09;;;13.60;100.00
14232;BME280;7200;52.194;9.900;2024-03-02T12:36:37;99232.13;;;13.62;100.00
14232;BME280;7200;52.194;9.900;2024-03-02T12:39:03;99228.75;;;13.60;100.00
14232;BME280;7200;52.194;9.900;2024-03-02T12:41:28;99240.38;;;13.71;100.00
14232;BME280;7200;52.194;9.900;2024-03-02T12:43:54;99230.66;;;13.58;100.00
14232;BME280;7200;52.194;9.900;2024-03-02T12:46:19;99215.25;;;13.63;100.00
14232;BME280;7200;52.194;9.900;2024-03-02T12:48:45;99226.19;;;13.72;100.00
14232;BME280;7200;52.194;9.900;2024-03-02T12:51:10;99224.91;;;13.65;100.00
14232;BME280;7200;52.194;9.900;2024-03-02T12:53:36;99214.63;;;13.73;100.00
14232;BME280;7200;52.194;9.900;2024-03-02T12:56:03;99211.97;;;13.73;100.00
14232;BME280;7200;52.194;9.900;2024-03-02T12:58:29;99210.28;;;13.72;100.00
14232;BME280;7200;52.194;9.900;2024-03-02T13:01:08;99214.00;;;13.82;100.00
14232;BME280;7200;52.194;9.900;2024-03-02T13:03:40;99213.88;;;13.83;100.00
14232;BME280;7200;52.194;9.900;2024-03-02T13:06:07;99201.47;;;13.84;100.00
14232;BME280;7200;52.194;9.900;2024-03-02T13:08:33;99199.47;;;13.88;100.00
14232;BME280;7200;52.194;9.900;2024-03-02T13:10:59;99209.84;;;14.04;100.00
14232;BME280;7200;52.194;9.900;2024-03-02T13:13:24;99215.53;;;14.23;100.00
14232;BME280;7200;52.194;9.900;2024-03-02T13:15:49;99210.44;;;14.33;100.00